Check out our new PWSWeather beta!
PWSweather.com
Personal Weather Stations
Station Observations
79674
AfterstegDE 79674

AfterstegDE 79674

Lat: 47.84344, Lon: 7.92844

Elevation: 809

Station Type: Davis Vantage 2 Aktive

www.wetter-aftersteg.de

High Low Average
Temperature 39.4°F4.1°C 33.1°F0.6°C 36.0°F2.2°C
Dew Point 36.7°F2.6°C 31.8°F-0.1°C 34.7°F1.5°C
Winds 6.0 mph 9.7 kmh Calm Calm 1.0 mph SSW1.6 kmh SSW
Wind Gusts 8.1 mph13.0 kmh -- 1.0 mph1.6 kmh
Humidity 98% 87% 95%
Pressure 30.57 in1035.2 mb 30.45 in1031.2 mb -
Precipitation 0.10 in2.5 mm - -
Hour Temp Dew Point Humidity Winds Wind Gusts Pressure Precip Precip Rate Daily Precip Total
12:02 AM 36.5°F2.5°C 36.0°F2.2°C 98% Calm Calm -- 30.56 in1034.9 mb - 0.00 in0.0 mm 0.06 in1.5 mm
12:07 AM 36.5°F2.5°C 36.0°F2.2°C 98% Calm Calm -- 30.56 in1034.9 mb - 0.00 in0.0 mm 0.00 in0.0 mm
12:12 AM 36.7°F2.6°C 36.1°F2.3°C 98% Calm Calm -- 30.56 in1034.9 mb - 0.00 in0.0 mm 0.00 in0.0 mm
12:17 AM 36.5°F2.5°C 36.0°F2.2°C 98% Calm Calm -- 30.56 in1034.9 mb - 0.00 in0.0 mm 0.00 in0.0 mm
12:22 AM 36.5°F2.5°C 36.0°F2.2°C 98% Calm Calm -- 30.56 in1034.9 mb - 0.00 in0.0 mm 0.00 in0.0 mm
12:27 AM 36.5°F2.5°C 36.0°F2.2°C 98% Calm Calm -- 30.56 in1034.9 mb - 0.00 in0.0 mm 0.00 in0.0 mm
12:32 AM 36.7°F2.6°C 36.1°F2.3°C 98% Calm Calm -- 30.56 in1034.9 mb - 0.00 in0.0 mm 0.00 in0.0 mm
12:37 AM 36.5°F2.5°C 36.0°F2.2°C 98% Calm Calm -- 30.56 in1034.9 mb - 0.00 in0.0 mm 0.00 in0.0 mm
12:42 AM 36.5°F2.5°C 36.0°F2.2°C 98% Calm Calm -- 30.57 in1035.2 mb - 0.00 in0.0 mm 0.00 in0.0 mm
12:47 AM 36.7°F2.6°C 36.1°F2.3°C 98% Calm Calm -- 30.56 in1034.9 mb - 0.00 in0.0 mm 0.00 in0.0 mm
12:52 AM 36.7°F2.6°C 36.1°F2.3°C 98% Calm Calm -- 30.56 in1034.9 mb - 0.00 in0.0 mm 0.00 in0.0 mm
12:57 AM 36.5°F2.5°C 36.0°F2.2°C 98% Calm Calm -- 30.56 in1034.9 mb - 0.00 in0.0 mm 0.00 in0.0 mm
01:02 AM 36.7°F2.6°C 36.1°F2.3°C 98% Calm Calm -- 30.56 in1034.9 mb - 0.00 in0.0 mm 0.00 in0.0 mm
01:07 AM 36.7°F2.6°C 36.1°F2.3°C 98% Calm Calm -- 30.56 in1034.9 mb - 0.00 in0.0 mm 0.00 in0.0 mm
01:12 AM 36.7°F2.6°C 36.1°F2.3°C 98% Calm Calm -- 30.56 in1034.9 mb - 0.00 in0.0 mm 0.00 in0.0 mm
01:17 AM 36.3°F2.4°C 35.8°F2.1°C 98% Calm Calm -- 30.56 in1034.9 mb - 0.00 in0.0 mm 0.00 in0.0 mm
01:22 AM 36.3°F2.4°C 35.8°F2.1°C 98% Calm Calm -- 30.57 in1035.2 mb - 0.00 in0.0 mm 0.00 in0.0 mm
01:27 AM 36.5°F2.5°C 36.0°F2.2°C 98% Calm Calm -- 30.57 in1035.2 mb - 0.00 in0.0 mm 0.00 in0.0 mm
01:32 AM 36.3°F2.4°C 35.8°F2.1°C 98% Calm Calm -- 30.57 in1035.2 mb - 0.00 in0.0 mm 0.00 in0.0 mm
01:37 AM 36.3°F2.4°C 35.8°F2.1°C 98% Calm Calm -- 30.57 in1035.2 mb - 0.00 in0.0 mm 0.00 in0.0 mm
01:42 AM 36.5°F2.5°C 36.0°F2.2°C 98% Calm Calm -- 30.57 in1035.2 mb - 0.00 in0.0 mm 0.00 in0.0 mm
01:47 AM 36.5°F2.5°C 36.0°F2.2°C 98% Calm Calm -- 30.56 in1034.9 mb - 0.00 in0.0 mm 0.00 in0.0 mm
01:52 AM 36.5°F2.5°C 36.0°F2.2°C 98% Calm Calm -- 30.57 in1035.2 mb - 0.00 in0.0 mm 0.00 in0.0 mm
01:57 AM 36.5°F2.5°C 36.0°F2.2°C 98% Calm Calm -- 30.57 in1035.2 mb - 0.00 in0.0 mm 0.00 in0.0 mm
02:02 AM 36.3°F2.4°C 35.8°F2.1°C 98% Calm Calm -- 30.57 in1035.2 mb - 0.00 in0.0 mm 0.00 in0.0 mm
02:07 AM 36.3°F2.4°C 35.8°F2.1°C 98% Calm Calm -- 30.57 in1035.2 mb - 0.00 in0.0 mm 0.00 in0.0 mm
02:12 AM 36.3°F2.4°C 35.8°F2.1°C 98% Calm Calm -- 30.57 in1035.2 mb - 0.00 in0.0 mm 0.00 in0.0 mm
02:17 AM 36.5°F2.5°C 36.0°F2.2°C 98% Calm Calm -- 30.57 in1035.2 mb - 0.00 in0.0 mm 0.00 in0.0 mm
02:22 AM 36.3°F2.4°C 35.8°F2.1°C 98% Calm Calm -- 30.57 in1035.2 mb - 0.00 in0.0 mm 0.00 in0.0 mm
02:27 AM 36.3°F2.4°C 35.8°F2.1°C 98% Calm Calm -- 30.57 in1035.2 mb - 0.00 in0.0 mm 0.00 in0.0 mm
02:32 AM 36.3°F2.4°C 35.8°F2.1°C 98% Calm Calm -- 30.57 in1035.2 mb - 0.00 in0.0 mm 0.00 in0.0 mm
02:37 AM 36.3°F2.4°C 35.8°F2.1°C 98% Calm Calm -- 30.57 in1035.2 mb - 0.00 in0.0 mm 0.00 in0.0 mm
02:42 AM 36.3°F2.4°C 35.8°F2.1°C 98% Calm Calm -- 30.57 in1035.2 mb - 0.00 in0.0 mm 0.00 in0.0 mm
02:47 AM 36.3°F2.4°C 35.8°F2.1°C 98% Calm Calm -- 30.57 in1035.2 mb - 0.00 in0.0 mm 0.00 in0.0 mm
02:52 AM 36.3°F2.4°C 35.8°F2.1°C 98% Calm Calm -- 30.57 in1035.2 mb - 0.00 in0.0 mm 0.00 in0.0 mm
02:57 AM 36.3°F2.4°C 35.8°F2.1°C 98% Calm Calm -- 30.56 in1034.9 mb - 0.00 in0.0 mm 0.00 in0.0 mm
03:02 AM 36.3°F2.4°C 35.8°F2.1°C 98% Calm Calm -- 30.56 in1034.9 mb - 0.00 in0.0 mm 0.00 in0.0 mm
03:07 AM 36.1°F2.3°C 35.6°F2.0°C 98% Calm Calm -- 30.56 in1034.9 mb - 0.00 in0.0 mm 0.00 in0.0 mm
03:12 AM 36.1°F2.3°C 35.6°F2.0°C 98% Calm Calm -- 30.56 in1034.9 mb - 0.00 in0.0 mm 0.00 in0.0 mm
03:17 AM 36.1°F2.3°C 35.6°F2.0°C 98% Calm Calm -- 30.56 in1034.9 mb - 0.00 in0.0 mm 0.00 in0.0 mm
03:22 AM 36.1°F2.3°C 35.6°F2.0°C 98% Calm Calm -- 30.56 in1034.9 mb - 0.00 in0.0 mm 0.00 in0.0 mm
03:27 AM 36.1°F2.3°C 35.6°F2.0°C 98% Calm Calm -- 30.56 in1034.9 mb - 0.00 in0.0 mm 0.00 in0.0 mm
03:32 AM 36.1°F2.3°C 35.6°F2.0°C 98% Calm Calm -- 30.56 in1034.9 mb - 0.00 in0.0 mm 0.00 in0.0 mm
03:37 AM 36.1°F2.3°C 35.6°F2.0°C 98% Calm Calm -- 30.56 in1034.9 mb - 0.00 in0.0 mm 0.00 in0.0 mm
03:42 AM 36.1°F2.3°C 35.6°F2.0°C 98% Calm Calm -- 30.55 in1034.5 mb - 0.00 in0.0 mm 0.00 in0.0 mm
03:47 AM 36.1°F2.3°C 35.6°F2.0°C 98% Calm Calm -- 30.55 in1034.5 mb - 0.00 in0.0 mm 0.00 in0.0 mm
03:52 AM 36.1°F2.3°C 35.6°F2.0°C 98% Calm Calm -- 30.55 in1034.5 mb - 0.00 in0.0 mm 0.00 in0.0 mm
03:57 AM 36.1°F2.3°C 35.6°F2.0°C 98% Calm Calm -- 30.55 in1034.5 mb - 0.00 in0.0 mm 0.00 in0.0 mm
04:02 AM 36.0°F2.2°C 35.4°F1.9°C 98% Calm Calm -- 30.54 in1034.2 mb - 0.00 in0.0 mm 0.00 in0.0 mm
04:07 AM 36.0°F2.2°C 35.4°F1.9°C 98% Calm Calm -- 30.54 in1034.2 mb - 0.00 in0.0 mm 0.00 in0.0 mm
04:12 AM 36.0°F2.2°C 35.4°F1.9°C 98% Calm Calm -- 30.54 in1034.2 mb - 0.00 in0.0 mm 0.00 in0.0 mm
04:17 AM 36.1°F2.3°C 35.6°F2.0°C 98% Calm Calm -- 30.54 in1034.2 mb - 0.00 in0.0 mm 0.00 in0.0 mm
04:22 AM 36.1°F2.3°C 35.6°F2.0°C 98% Calm Calm -- 30.54 in1034.2 mb - 0.00 in0.0 mm 0.00 in0.0 mm
04:27 AM 36.1°F2.3°C 35.6°F2.0°C 98% Calm Calm -- 30.54 in1034.2 mb - 0.00 in0.0 mm 0.00 in0.0 mm
04:32 AM 36.1°F2.3°C 35.6°F2.0°C 98% Calm Calm -- 30.54 in1034.2 mb - 0.00 in0.0 mm 0.00 in0.0 mm
04:37 AM 36.1°F2.3°C 35.6°F2.0°C 98% Calm Calm -- 30.54 in1034.2 mb - 0.00 in0.0 mm 0.00 in0.0 mm
04:42 AM 36.1°F2.3°C 35.6°F2.0°C 98% Calm Calm -- 30.54 in1034.2 mb - 0.00 in0.0 mm 0.00 in0.0 mm
04:47 AM 36.1°F2.3°C 35.6°F2.0°C 98% Calm Calm -- 30.53 in1033.9 mb - 0.00 in0.0 mm 0.00 in0.0 mm
04:52 AM 36.0°F2.2°C 35.4°F1.9°C 98% Calm Calm -- 30.53 in1033.9 mb - 0.00 in0.0 mm 0.00 in0.0 mm
04:57 AM 36.0°F2.2°C 35.4°F1.9°C 98% Calm Calm -- 30.53 in1033.9 mb - 0.00 in0.0 mm 0.00 in0.0 mm
05:02 AM 36.0°F2.2°C 35.4°F1.9°C 98% Calm Calm -- 30.53 in1033.9 mb - 0.00 in0.0 mm 0.00 in0.0 mm
05:07 AM 36.0°F2.2°C 35.4°F1.9°C 98% Calm Calm -- 30.53 in1033.9 mb - 0.00 in0.0 mm 0.00 in0.0 mm
05:12 AM 36.0°F2.2°C 35.4°F1.9°C 98% Calm Calm -- 30.53 in1033.9 mb - 0.00 in0.0 mm 0.00 in0.0 mm
05:17 AM 36.0°F2.2°C 35.4°F1.9°C 98% Calm Calm -- 30.52 in1033.5 mb - 0.00 in0.0 mm 0.00 in0.0 mm
05:22 AM 36.1°F2.3°C 35.6°F2.0°C 98% Calm Calm -- 30.52 in1033.5 mb - 0.00 in0.0 mm 0.00 in0.0 mm
05:27 AM 36.0°F2.2°C 35.4°F1.9°C 98% Calm Calm -- 30.52 in1033.5 mb - 0.00 in0.0 mm 0.00 in0.0 mm
05:32 AM 36.0°F2.2°C 35.4°F1.9°C 98% Calm Calm -- 30.51 in1033.2 mb - 0.00 in0.0 mm 0.00 in0.0 mm
05:37 AM 36.0°F2.2°C 35.4°F1.9°C 98% Calm Calm -- 30.51 in1033.2 mb - 0.00 in0.0 mm 0.00 in0.0 mm
05:42 AM 36.0°F2.2°C 35.4°F1.9°C 98% Calm Calm -- 30.51 in1033.2 mb - 0.00 in0.0 mm 0.00 in0.0 mm
05:47 AM 36.0°F2.2°C 35.4°F1.9°C 98% Calm Calm -- 30.51 in1033.2 mb - 0.00 in0.0 mm 0.00 in0.0 mm
05:52 AM 36.0°F2.2°C 35.4°F1.9°C 98% Calm Calm -- 30.51 in1033.2 mb - 0.00 in0.0 mm 0.00 in0.0 mm
05:57 AM 36.0°F2.2°C 35.4°F1.9°C 98% Calm Calm -- 30.50 in1032.8 mb - 0.00 in0.0 mm 0.00 in0.0 mm
06:02 AM 36.0°F2.2°C 35.4°F1.9°C 98% Calm Calm -- 30.51 in1033.2 mb - 0.00 in0.0 mm 0.00 in0.0 mm
06:07 AM 36.0°F2.2°C 35.4°F1.9°C 98% Calm Calm -- 30.51 in1033.2 mb - 0.00 in0.0 mm 0.00 in0.0 mm
06:12 AM 36.0°F2.2°C 35.4°F1.9°C 98% Calm Calm -- 30.51 in1033.2 mb - 0.00 in0.0 mm 0.00 in0.0 mm
06:17 AM 36.0°F2.2°C 35.4°F1.9°C 98% Calm Calm -- 30.51 in1033.2 mb - 0.00 in0.0 mm 0.00 in0.0 mm
06:22 AM 36.0°F2.2°C 35.4°F1.9°C 98% Calm Calm -- 30.51 in1033.2 mb - 0.00 in0.0 mm 0.00 in0.0 mm
06:27 AM 36.0°F2.2°C 35.4°F1.9°C 98% Calm Calm -- 30.51 in1033.2 mb - 0.00 in0.0 mm 0.00 in0.0 mm
06:32 AM 36.0°F2.2°C 35.4°F1.9°C 98% Calm Calm -- 30.51 in1033.2 mb - 0.00 in0.0 mm 0.00 in0.0 mm
06:37 AM 35.8°F2.1°C 35.2°F1.8°C 98% Calm Calm -- 30.51 in1033.2 mb - 0.00 in0.0 mm 0.00 in0.0 mm
06:42 AM 35.8°F2.1°C 35.2°F1.8°C 98% Calm Calm -- 30.51 in1033.2 mb - 0.00 in0.0 mm 0.00 in0.0 mm
06:47 AM 35.8°F2.1°C 35.2°F1.8°C 98% Calm Calm 0.9 mph1.4 kmh 30.51 in1033.2 mb - 0.00 in0.0 mm 0.00 in0.0 mm
06:52 AM 35.8°F2.1°C 35.2°F1.8°C 98% Calm Calm -- 30.51 in1033.2 mb - 0.00 in0.0 mm 0.00 in0.0 mm
06:57 AM 35.8°F2.1°C 35.2°F1.8°C 98% Calm Calm -- 30.51 in1033.2 mb - 0.00 in0.0 mm 0.00 in0.0 mm
07:02 AM 35.8°F2.1°C 35.2°F1.8°C 98% Calm Calm -- 30.51 in1033.2 mb - 0.00 in0.0 mm 0.00 in0.0 mm
07:07 AM 35.8°F2.1°C 35.2°F1.8°C 98% Calm Calm -- 30.51 in1033.2 mb - 0.00 in0.0 mm 0.00 in0.0 mm
07:12 AM 35.8°F2.1°C 35.2°F1.8°C 98% Calm Calm -- 30.50 in1032.8 mb - 0.00 in0.0 mm 0.00 in0.0 mm
07:17 AM 35.8°F2.1°C 35.2°F1.8°C 98% Calm Calm -- 30.51 in1033.2 mb - 0.00 in0.0 mm 0.00 in0.0 mm
07:22 AM 35.8°F2.1°C 35.2°F1.8°C 98% Calm Calm -- 30.51 in1033.2 mb - 0.00 in0.0 mm 0.00 in0.0 mm
07:27 AM 35.8°F2.1°C 35.2°F1.8°C 98% Calm Calm -- 30.51 in1033.2 mb - 0.00 in0.0 mm 0.00 in0.0 mm
07:32 AM 35.8°F2.1°C 35.2°F1.8°C 98% Calm Calm -- 30.51 in1033.2 mb - 0.00 in0.0 mm 0.00 in0.0 mm
07:37 AM 35.8°F2.1°C 35.2°F1.8°C 98% Calm Calm -- 30.51 in1033.2 mb - 0.00 in0.0 mm 0.00 in0.0 mm
07:42 AM 35.8°F2.1°C 35.2°F1.8°C 98% Calm Calm -- 30.51 in1033.2 mb - 0.00 in0.0 mm 0.00 in0.0 mm
07:47 AM 35.8°F2.1°C 35.2°F1.8°C 98% Calm Calm -- 30.51 in1033.2 mb - 0.00 in0.0 mm 0.00 in0.0 mm
07:52 AM 35.8°F2.1°C 35.2°F1.8°C 98% Calm Calm -- 30.51 in1033.2 mb - 0.00 in0.0 mm 0.00 in0.0 mm
07:57 AM 35.8°F2.1°C 35.2°F1.8°C 98% Calm Calm -- 30.51 in1033.2 mb - 0.00 in0.0 mm 0.00 in0.0 mm
08:02 AM 35.8°F2.1°C 35.2°F1.8°C 98% Calm Calm -- 30.51 in1033.2 mb - 0.00 in0.0 mm 0.00 in0.0 mm
08:07 AM 35.8°F2.1°C 35.2°F1.8°C 98% Calm Calm -- 30.52 in1033.5 mb - 0.00 in0.0 mm 0.00 in0.0 mm
08:12 AM 35.8°F2.1°C 35.2°F1.8°C 98% Calm Calm -- 30.52 in1033.5 mb - 0.00 in0.0 mm 0.00 in0.0 mm
08:17 AM 35.6°F2.0°C 35.1°F1.7°C 98% Calm Calm -- 30.52 in1033.5 mb - 0.00 in0.0 mm 0.00 in0.0 mm
08:22 AM 35.6°F2.0°C 35.1°F1.7°C 98% Calm Calm -- 30.51 in1033.2 mb - 0.00 in0.0 mm 0.00 in0.0 mm
08:27 AM 35.6°F2.0°C 35.1°F1.7°C 98% Calm Calm -- 30.51 in1033.2 mb - 0.00 in0.0 mm 0.00 in0.0 mm
08:32 AM 35.6°F2.0°C 35.1°F1.7°C 98% Calm Calm -- 30.51 in1033.2 mb - 0.00 in0.0 mm 0.00 in0.0 mm
08:37 AM 35.4°F1.9°C 34.9°F1.6°C 98% Calm Calm -- 30.51 in1033.2 mb - 0.00 in0.0 mm 0.00 in0.0 mm
08:42 AM 35.4°F1.9°C 34.9°F1.6°C 98% Calm Calm -- 30.51 in1033.2 mb - 0.00 in0.0 mm 0.00 in0.0 mm
08:47 AM 35.4°F1.9°C 34.9°F1.6°C 98% Calm Calm -- 30.51 in1033.2 mb - 0.00 in0.0 mm 0.00 in0.0 mm
08:52 AM 35.6°F2.0°C 35.1°F1.7°C 98% Calm Calm -- 30.51 in1033.2 mb - 0.00 in0.0 mm 0.00 in0.0 mm
08:57 AM 35.6°F2.0°C 35.1°F1.7°C 98% Calm Calm -- 30.51 in1033.2 mb - 0.00 in0.0 mm 0.00 in0.0 mm
09:02 AM 35.6°F2.0°C 35.1°F1.7°C 98% 0.9 mph N1.4 kmh N -- 30.51 in1033.2 mb - 0.00 in0.0 mm 0.00 in0.0 mm
09:07 AM 35.6°F2.0°C 35.1°F1.7°C 98% 0.9 mph NW1.4 kmh NW -- 30.52 in1033.5 mb - 0.00 in0.0 mm 0.00 in0.0 mm
09:12 AM 35.8°F2.1°C 35.2°F1.8°C 98% Calm Calm -- 30.51 in1033.2 mb - 0.00 in0.0 mm 0.00 in0.0 mm
09:17 AM 36.0°F2.2°C 35.4°F1.9°C 98% Calm Calm -- 30.52 in1033.5 mb - 0.00 in0.0 mm 0.00 in0.0 mm
09:22 AM 36.1°F2.3°C 35.6°F2.0°C 98% Calm Calm -- 30.52 in1033.5 mb - 0.00 in0.0 mm 0.00 in0.0 mm
09:27 AM 36.1°F2.3°C 35.6°F2.0°C 98% Calm Calm -- 30.52 in1033.5 mb - 0.00 in0.0 mm 0.00 in0.0 mm
09:32 AM 36.3°F2.4°C 35.8°F2.1°C 98% Calm Calm -- 30.51 in1033.2 mb - 0.00 in0.0 mm 0.00 in0.0 mm
09:37 AM 36.3°F2.4°C 35.8°F2.1°C 98% Calm Calm 0.9 mph1.4 kmh 30.51 in1033.2 mb - 0.00 in0.0 mm 0.00 in0.0 mm
09:42 AM 36.1°F2.3°C 35.6°F2.0°C 98% Calm Calm -- 30.51 in1033.2 mb - 0.00 in0.0 mm 0.00 in0.0 mm
09:47 AM 36.1°F2.3°C 35.6°F2.0°C 98% Calm Calm -- 30.51 in1033.2 mb - 0.00 in0.0 mm 0.00 in0.0 mm
09:52 AM 36.1°F2.3°C 35.6°F2.0°C 98% Calm Calm -- 30.51 in1033.2 mb - 0.00 in0.0 mm 0.00 in0.0 mm
09:57 AM 36.1°F2.3°C 35.6°F2.0°C 98% Calm Calm -- 30.51 in1033.2 mb - 0.00 in0.0 mm 0.00 in0.0 mm
10:02 AM 36.1°F2.3°C 35.6°F2.0°C 98% Calm Calm 4.0 mph6.4 kmh 30.51 in1033.2 mb - 0.00 in0.0 mm 0.00 in0.0 mm
10:07 AM 36.3°F2.4°C 35.8°F2.1°C 98% Calm Calm -- 30.51 in1033.2 mb - 0.00 in0.0 mm 0.00 in0.0 mm
10:12 AM 36.3°F2.4°C 35.8°F2.1°C 98% 0.9 mph N1.4 kmh N -- 30.51 in1033.2 mb - 0.00 in0.0 mm 0.00 in0.0 mm
10:17 AM 36.7°F2.6°C 36.1°F2.3°C 98% 0.9 mph WSW1.4 kmh WSW -- 30.50 in1032.8 mb - 0.00 in0.0 mm 0.00 in0.0 mm
10:22 AM 36.9°F2.7°C 36.1°F2.3°C 97% 0.9 mph E1.4 kmh E -- 30.51 in1033.2 mb - 0.00 in0.0 mm 0.00 in0.0 mm
10:27 AM 37.0°F2.8°C 36.3°F2.4°C 97% Calm Calm 2.0 mph3.2 kmh 30.51 in1033.2 mb - 0.00 in0.0 mm 0.00 in0.0 mm
10:32 AM 37.0°F2.8°C 36.3°F2.4°C 97% 0.9 mph NNE1.4 kmh NNE -- 30.51 in1033.2 mb - 0.00 in0.0 mm 0.00 in0.0 mm
10:37 AM 37.2°F2.9°C 36.5°F2.5°C 97% 2.0 mph NE3.2 kmh NE -- 30.51 in1033.2 mb - 0.00 in0.0 mm 0.00 in0.0 mm
10:42 AM 37.6°F3.1°C 36.5°F2.5°C 96% 0.9 mph NW1.4 kmh NW -- 30.51 in1033.2 mb - 0.00 in0.0 mm 0.00 in0.0 mm
10:47 AM 37.8°F3.2°C 36.7°F2.6°C 96% Calm Calm 2.0 mph3.2 kmh 30.51 in1033.2 mb - 0.00 in0.0 mm 0.00 in0.0 mm
10:52 AM 37.8°F3.2°C 36.7°F2.6°C 96% 2.0 mph N3.2 kmh N -- 30.50 in1032.8 mb - 0.00 in0.0 mm 0.00 in0.0 mm
10:57 AM 37.8°F3.2°C 36.5°F2.5°C 95% 2.0 mph NE3.2 kmh NE -- 30.50 in1032.8 mb - 0.00 in0.0 mm 0.00 in0.0 mm
11:02 AM 37.9°F3.3°C 36.7°F2.6°C 95% Calm Calm 0.9 mph1.4 kmh 30.50 in1032.8 mb - 0.00 in0.0 mm 0.00 in0.0 mm
11:07 AM 37.9°F3.3°C 36.3°F2.4°C 94% Calm Calm 4.0 mph6.4 kmh 30.50 in1032.8 mb - 0.00 in0.0 mm 0.00 in0.0 mm
11:12 AM 37.9°F3.3°C 36.3°F2.4°C 94% 0.9 mph E1.4 kmh E -- 30.50 in1032.8 mb - 0.00 in0.0 mm 0.00 in0.0 mm
11:17 AM 37.9°F3.3°C 36.3°F2.4°C 94% 0.9 mph WNW1.4 kmh WNW 6.9 mph11.1 kmh 30.50 in1032.8 mb - 0.00 in0.0 mm 0.00 in0.0 mm
11:22 AM 37.9°F3.3°C 36.1°F2.3°C 93% 2.0 mph ESE3.2 kmh ESE 2.9 mph4.7 kmh 30.50 in1032.8 mb - 0.00 in0.0 mm 0.00 in0.0 mm
11:27 AM 37.9°F3.3°C 35.8°F2.1°C 92% 2.9 mph NW4.7 kmh NW 4.9 mph7.9 kmh 30.49 in1032.5 mb - 0.00 in0.0 mm 0.00 in0.0 mm
11:32 AM 37.9°F3.3°C 35.8°F2.1°C 92% 2.9 mph NE4.7 kmh NE -- 30.49 in1032.5 mb - 0.00 in0.0 mm 0.00 in0.0 mm
11:37 AM 37.9°F3.3°C 35.6°F2.0°C 91% 2.0 mph NW3.2 kmh NW -- 30.49 in1032.5 mb - 0.00 in0.0 mm 0.00 in0.0 mm
11:42 AM 38.1°F3.4°C 35.8°F2.1°C 91% 0.9 mph N1.4 kmh N -- 30.49 in1032.5 mb - 0.00 in0.0 mm 0.00 in0.0 mm
11:47 AM 38.1°F3.4°C 35.4°F1.9°C 90% 0.9 mph NW1.4 kmh NW 2.0 mph3.2 kmh 30.49 in1032.5 mb - 0.00 in0.0 mm 0.00 in0.0 mm
11:52 AM 38.3°F3.5°C 35.6°F2.0°C 90% 2.9 mph NW4.7 kmh NW 4.0 mph6.4 kmh 30.49 in1032.5 mb - 0.00 in0.0 mm 0.00 in0.0 mm
11:57 AM 38.1°F3.4°C 35.2°F1.8°C 89% 4.0 mph NW6.4 kmh NW 4.0 mph6.4 kmh 30.49 in1032.5 mb - 0.00 in0.0 mm 0.00 in0.0 mm
12:02 PM 38.3°F3.5°C 35.1°F1.7°C 88% 4.9 mph NW7.9 kmh NW -- 30.49 in1032.5 mb - 0.00 in0.0 mm 0.00 in0.0 mm
12:07 PM 38.5°F3.6°C 35.2°F1.8°C 88% 4.9 mph WSW7.9 kmh WSW 4.0 mph6.4 kmh 30.48 in1032.2 mb - 0.00 in0.0 mm 0.00 in0.0 mm
12:12 PM 38.7°F3.7°C 35.4°F1.9°C 88% 2.9 mph NNW4.7 kmh NNW 6.9 mph11.1 kmh 30.48 in1032.2 mb - 0.00 in0.0 mm 0.00 in0.0 mm
12:17 PM 38.8°F3.8°C 35.2°F1.8°C 87% 2.9 mph NNW4.7 kmh NNW 2.0 mph3.2 kmh 30.48 in1032.2 mb - 0.00 in0.0 mm 0.00 in0.0 mm
12:22 PM 38.8°F3.8°C 35.2°F1.8°C 87% 2.9 mph NE4.7 kmh NE 2.9 mph4.7 kmh 30.48 in1032.2 mb - 0.00 in0.0 mm 0.00 in0.0 mm
12:27 PM 39.0°F3.9°C 35.4°F1.9°C 87% 4.0 mph N6.4 kmh N 4.0 mph6.4 kmh 30.47 in1031.8 mb - 0.00 in0.0 mm 0.00 in0.0 mm
12:32 PM 39.2°F4.0°C 35.6°F2.0°C 87% 2.9 mph WSW4.7 kmh WSW -- 30.47 in1031.8 mb - 0.00 in0.0 mm 0.00 in0.0 mm
12:37 PM 39.4°F4.1°C 35.8°F2.1°C 87% 0.9 mph SW1.4 kmh SW 0.9 mph1.4 kmh 30.47 in1031.8 mb - 0.00 in0.0 mm 0.00 in0.0 mm
12:42 PM 39.4°F4.1°C 35.8°F2.1°C 87% 2.0 mph N3.2 kmh N 8.1 mph13.0 kmh 30.47 in1031.8 mb - 0.00 in0.0 mm 0.00 in0.0 mm
12:47 PM 39.4°F4.1°C 35.8°F2.1°C 87% 4.0 mph W6.4 kmh W 0.9 mph1.4 kmh 30.47 in1031.8 mb - 0.00 in0.0 mm 0.00 in0.0 mm
12:52 PM 39.4°F4.1°C 35.8°F2.1°C 87% 2.9 mph NW4.7 kmh NW 4.0 mph6.4 kmh 30.47 in1031.8 mb - 0.00 in0.0 mm 0.00 in0.0 mm
12:57 PM 39.2°F4.0°C 35.6°F2.0°C 87% 2.0 mph NNW3.2 kmh NNW 4.9 mph7.9 kmh 30.46 in1031.5 mb - 0.00 in0.0 mm 0.00 in0.0 mm
01:02 PM 39.2°F4.0°C 35.6°F2.0°C 87% 2.0 mph NW3.2 kmh NW -- 30.46 in1031.5 mb - 0.00 in0.0 mm 0.00 in0.0 mm
01:07 PM 39.0°F3.9°C 35.8°F2.1°C 88% 2.0 mph NE3.2 kmh NE 2.9 mph4.7 kmh 30.46 in1031.5 mb - 0.00 in0.0 mm 0.00 in0.0 mm
01:12 PM 38.7°F3.7°C 35.8°F2.1°C 89% 0.9 mph NE1.4 kmh NE -- 30.46 in1031.5 mb - 0.00 in0.0 mm 0.00 in0.0 mm
01:17 PM 38.1°F3.4°C 35.4°F1.9°C 90% 0.9 mph SE1.4 kmh SE -- 30.46 in1031.5 mb - 0.00 in0.0 mm 0.00 in0.0 mm
01:22 PM 37.8°F3.2°C 35.4°F1.9°C 91% 0.9 mph SSE1.4 kmh SSE 4.0 mph6.4 kmh 30.46 in1031.5 mb - 0.00 in0.0 mm 0.00 in0.0 mm
01:27 PM 37.2°F2.9°C 34.9°F1.6°C 91% 2.9 mph E4.7 kmh E -- 30.46 in1031.5 mb - 0.00 in0.0 mm 0.00 in0.0 mm
01:32 PM 37.2°F2.9°C 35.1°F1.7°C 92% 2.0 mph ESE3.2 kmh ESE -- 30.46 in1031.5 mb - 0.00 in0.0 mm 0.00 in0.0 mm
01:37 PM 37.0°F2.8°C 34.9°F1.6°C 92% 0.9 mph WNW1.4 kmh WNW -- 30.47 in1031.8 mb - 0.00 in0.0 mm 0.00 in0.0 mm
01:42 PM 36.9°F2.7°C 35.1°F1.7°C 93% 2.0 mph NNW3.2 kmh NNW 6.9 mph11.1 kmh 30.46 in1031.5 mb - 0.00 in0.0 mm 0.00 in0.0 mm
01:47 PM 36.9°F2.7°C 34.7°F1.5°C 92% 4.9 mph WNW7.9 kmh WNW 6.0 mph9.7 kmh 30.47 in1031.8 mb - 0.00 in0.0 mm 0.00 in0.0 mm
01:52 PM 36.7°F2.6°C 34.9°F1.6°C 93% 6.0 mph NW9.7 kmh NW 4.0 mph6.4 kmh 30.47 in1031.8 mb - 0.00 in0.0 mm 0.00 in0.0 mm
01:57 PM 36.7°F2.6°C 34.9°F1.6°C 93% 4.0 mph WSW6.4 kmh WSW -- 30.46 in1031.5 mb - 0.00 in0.0 mm 0.00 in0.0 mm
02:02 PM 36.5°F2.5°C 34.7°F1.5°C 93% 2.9 mph NW4.7 kmh NW 0.9 mph1.4 kmh 30.46 in1031.5 mb - 0.00 in0.0 mm 0.00 in0.0 mm
02:07 PM 36.3°F2.4°C 34.2°F1.2°C 92% 4.0 mph NW6.4 kmh NW 6.9 mph11.1 kmh 30.46 in1031.5 mb - 0.00 in0.0 mm 0.00 in0.0 mm
02:12 PM 36.3°F2.4°C 34.5°F1.4°C 93% 4.0 mph WNW6.4 kmh WNW 2.9 mph4.7 kmh 30.47 in1031.8 mb - 0.00 in0.0 mm 0.00 in0.0 mm
02:17 PM 36.1°F2.3°C 34.3°F1.3°C 93% 4.0 mph NNE6.4 kmh NNE 2.0 mph3.2 kmh 30.46 in1031.5 mb - 0.00 in0.0 mm 0.00 in0.0 mm
02:22 PM 36.1°F2.3°C 34.3°F1.3°C 93% 4.0 mph NW6.4 kmh NW -- 30.46 in1031.5 mb - 0.00 in0.0 mm 0.00 in0.0 mm
02:27 PM 36.1°F2.3°C 34.3°F1.3°C 93% 2.0 mph N3.2 kmh N 6.0 mph9.7 kmh 30.46 in1031.5 mb - 0.00 in0.0 mm 0.00 in0.0 mm
02:32 PM 36.0°F2.2°C 34.2°F1.2°C 93% 2.0 mph N3.2 kmh N -- 30.46 in1031.5 mb - 0.00 in0.0 mm 0.00 in0.0 mm
02:37 PM 36.0°F2.2°C 34.2°F1.2°C 93% 2.0 mph NW3.2 kmh NW 0.9 mph1.4 kmh 30.46 in1031.5 mb - 0.00 in0.0 mm 0.00 in0.0 mm
02:42 PM 36.0°F2.2°C 34.2°F1.2°C 93% 0.9 mph W1.4 kmh W -- 30.46 in1031.5 mb - 0.00 in0.0 mm 0.00 in0.0 mm
02:47 PM 36.0°F2.2°C 34.2°F1.2°C 93% 2.0 mph SW3.2 kmh SW -- 30.46 in1031.5 mb - 0.00 in0.0 mm 0.00 in0.0 mm
02:52 PM 36.0°F2.2°C 34.2°F1.2°C 93% 2.0 mph ENE3.2 kmh ENE -- 30.46 in1031.5 mb - 0.00 in0.0 mm 0.00 in0.0 mm
02:57 PM 36.0°F2.2°C 34.2°F1.2°C 93% 0.9 mph NE1.4 kmh NE 2.0 mph3.2 kmh 30.46 in1031.5 mb - 0.00 in0.0 mm 0.00 in0.0 mm
03:02 PM 36.0°F2.2°C 34.3°F1.3°C 94% Calm Calm -- 30.46 in1031.5 mb - 0.00 in0.0 mm 0.00 in0.0 mm
03:07 PM 36.1°F2.3°C 34.5°F1.4°C 94% Calm Calm -- 30.46 in1031.5 mb - 0.00 in0.0 mm 0.00 in0.0 mm
03:12 PM 36.0°F2.2°C 34.3°F1.3°C 94% 0.9 mph NW1.4 kmh NW 4.0 mph6.4 kmh 30.46 in1031.5 mb - 0.00 in0.0 mm 0.00 in0.0 mm
03:17 PM 36.0°F2.2°C 34.3°F1.3°C 94% 2.0 mph ENE3.2 kmh ENE -- 30.47 in1031.8 mb - 0.00 in0.0 mm 0.00 in0.0 mm
03:22 PM 36.0°F2.2°C 34.3°F1.3°C 94% 0.9 mph NW1.4 kmh NW -- 30.46 in1031.5 mb - 0.00 in0.0 mm 0.00 in0.0 mm
03:27 PM 36.0°F2.2°C 34.3°F1.3°C 94% 0.9 mph NW1.4 kmh NW 2.0 mph3.2 kmh 30.46 in1031.5 mb - 0.00 in0.0 mm 0.00 in0.0 mm
03:32 PM 36.0°F2.2°C 34.3°F1.3°C 94% 0.9 mph NW1.4 kmh NW -- 30.46 in1031.5 mb - 0.00 in0.0 mm 0.00 in0.0 mm
03:37 PM 36.0°F2.2°C 34.3°F1.3°C 94% 0.9 mph NW1.4 kmh NW 2.9 mph4.7 kmh 30.47 in1031.8 mb - 0.00 in0.0 mm 0.00 in0.0 mm
03:42 PM 36.0°F2.2°C 34.3°F1.3°C 94% 2.0 mph W3.2 kmh W 0.9 mph1.4 kmh 30.47 in1031.8 mb - 0.00 in0.0 mm 0.00 in0.0 mm
03:47 PM 36.0°F2.2°C 34.3°F1.3°C 94% 2.0 mph NW3.2 kmh NW -- 30.47 in1031.8 mb - 0.00 in0.0 mm 0.00 in0.0 mm
03:52 PM 36.1°F2.3°C 34.5°F1.4°C 94% 0.9 mph NW1.4 kmh NW -- 30.47 in1031.8 mb - 0.00 in0.0 mm 0.00 in0.0 mm
03:57 PM 36.1°F2.3°C 34.3°F1.3°C 93% Calm Calm -- 30.47 in1031.8 mb - 0.00 in0.0 mm 0.00 in0.0 mm
04:02 PM 36.3°F2.4°C 34.5°F1.4°C 93% Calm Calm -- 30.47 in1031.8 mb - 0.00 in0.0 mm 0.00 in0.0 mm
04:07 PM 36.3°F2.4°C 34.5°F1.4°C 93% Calm Calm -- 30.47 in1031.8 mb - 0.00 in0.0 mm 0.00 in0.0 mm
04:12 PM 36.3°F2.4°C 34.2°F1.2°C 92% Calm Calm -- 30.47 in1031.8 mb - 0.00 in0.0 mm 0.00 in0.0 mm
04:17 PM 36.3°F2.4°C 34.2°F1.2°C 92% Calm Calm -- 30.47 in1031.8 mb - 0.00 in0.0 mm 0.00 in0.0 mm
04:22 PM 36.5°F2.5°C 34.3°F1.3°C 92% Calm Calm -- 30.47 in1031.8 mb - 0.00 in0.0 mm 0.00 in0.0 mm
04:27 PM 36.5°F2.5°C 34.3°F1.3°C 92% Calm Calm -- 30.47 in1031.8 mb - 0.00 in0.0 mm 0.00 in0.0 mm
04:32 PM 36.3°F2.4°C 34.2°F1.2°C 92% Calm Calm -- 30.47 in1031.8 mb - 0.00 in0.0 mm 0.00 in0.0 mm
04:37 PM 36.3°F2.4°C 34.2°F1.2°C 92% 0.9 mph N1.4 kmh N 4.0 mph6.4 kmh 30.47 in1031.8 mb - 0.00 in0.0 mm 0.00 in0.0 mm
04:42 PM 36.3°F2.4°C 34.2°F1.2°C 92% 2.0 mph NW3.2 kmh NW -- 30.47 in1031.8 mb - 0.00 in0.0 mm 0.00 in0.0 mm
04:47 PM 36.1°F2.3°C 34.0°F1.1°C 92% 0.9 mph SW1.4 kmh SW -- 30.47 in1031.8 mb - 0.00 in0.0 mm 0.00 in0.0 mm
04:52 PM 36.1°F2.3°C 34.3°F1.3°C 93% Calm Calm -- 30.47 in1031.8 mb - 0.00 in0.0 mm 0.00 in0.0 mm
04:57 PM 36.1°F2.3°C 34.3°F1.3°C 93% Calm Calm -- 30.47 in1031.8 mb - 0.00 in0.0 mm 0.00 in0.0 mm
05:02 PM 36.1°F2.3°C 34.3°F1.3°C 93% Calm Calm -- 30.47 in1031.8 mb - 0.00 in0.0 mm 0.00 in0.0 mm
05:07 PM 36.1°F2.3°C 34.3°F1.3°C 93% Calm Calm -- 30.47 in1031.8 mb - 0.00 in0.0 mm 0.00 in0.0 mm
05:12 PM 36.1°F2.3°C 34.3°F1.3°C 93% Calm Calm -- 30.47 in1031.8 mb - 0.00 in0.0 mm 0.00 in0.0 mm
05:17 PM 36.0°F2.2°C 34.2°F1.2°C 93% Calm Calm -- 30.47 in1031.8 mb - 0.00 in0.0 mm 0.00 in0.0 mm
05:22 PM 36.0°F2.2°C 34.2°F1.2°C 93% Calm Calm -- 30.48 in1032.2 mb - 0.00 in0.0 mm 0.00 in0.0 mm
05:27 PM 36.0°F2.2°C 34.2°F1.2°C 93% Calm Calm 4.9 mph7.9 kmh 30.48 in1032.2 mb - 0.00 in0.0 mm 0.00 in0.0 mm
05:32 PM 36.0°F2.2°C 34.2°F1.2°C 93% 0.9 mph WSW1.4 kmh WSW -- 30.48 in1032.2 mb - 0.00 in0.0 mm 0.00 in0.0 mm
05:37 PM 36.1°F2.3°C 34.3°F1.3°C 93% 0.9 mph W1.4 kmh W -- 30.48 in1032.2 mb - 0.00 in0.0 mm 0.00 in0.0 mm
05:42 PM 36.1°F2.3°C 34.3°F1.3°C 93% Calm Calm -- 30.48 in1032.2 mb - 0.00 in0.0 mm 0.00 in0.0 mm
05:47 PM 36.1°F2.3°C 34.3°F1.3°C 93% Calm Calm 2.9 mph4.7 kmh 30.48 in1032.2 mb - 0.00 in0.0 mm 0.00 in0.0 mm
05:52 PM 36.1°F2.3°C 34.3°F1.3°C 93% Calm Calm -- 30.48 in1032.2 mb - 0.00 in0.0 mm 0.00 in0.0 mm
05:57 PM 36.1°F2.3°C 34.3°F1.3°C 93% 0.9 mph NNE1.4 kmh NNE 4.0 mph6.4 kmh 30.48 in1032.2 mb - 0.00 in0.0 mm 0.00 in0.0 mm
06:02 PM 36.1°F2.3°C 34.3°F1.3°C 93% 2.0 mph NNW3.2 kmh NNW 4.9 mph7.9 kmh 30.47 in1031.8 mb - 0.00 in0.0 mm 0.00 in0.0 mm
06:07 PM 36.1°F2.3°C 34.3°F1.3°C 93% 2.9 mph W4.7 kmh W 2.0 mph3.2 kmh 30.48 in1032.2 mb - 0.00 in0.0 mm 0.00 in0.0 mm
06:12 PM 36.1°F2.3°C 34.3°F1.3°C 93% 2.9 mph N4.7 kmh N 2.0 mph3.2 kmh 30.48 in1032.2 mb - 0.00 in0.0 mm 0.00 in0.0 mm
06:17 PM 36.1°F2.3°C 34.3°F1.3°C 93% 2.9 mph NW4.7 kmh NW -- 30.48 in1032.2 mb - 0.00 in0.0 mm 0.00 in0.0 mm
06:22 PM 36.1°F2.3°C 34.3°F1.3°C 93% 2.0 mph WNW3.2 kmh WNW -- 30.48 in1032.2 mb - 0.00 in0.0 mm 0.00 in0.0 mm
06:27 PM 36.1°F2.3°C 34.3°F1.3°C 93% 0.9 mph W1.4 kmh W -- 30.47 in1031.8 mb - 0.00 in0.0 mm 0.00 in0.0 mm
06:32 PM 36.1°F2.3°C 34.3°F1.3°C 93% 0.9 mph NNW1.4 kmh NNW -- 30.47 in1031.8 mb - 0.00 in0.0 mm 0.00 in0.0 mm
06:37 PM 36.1°F2.3°C 34.3°F1.3°C 93% Calm Calm -- 30.47 in1031.8 mb - 0.00 in0.0 mm 0.00 in0.0 mm
06:42 PM 36.1°F2.3°C 34.3°F1.3°C 93% Calm Calm 2.0 mph3.2 kmh 30.48 in1032.2 mb - 0.00 in0.0 mm 0.00 in0.0 mm
06:47 PM 36.0°F2.2°C 34.2°F1.2°C 93% 0.9 mph NNW1.4 kmh NNW 8.1 mph13.0 kmh 30.47 in1031.8 mb - 0.00 in0.0 mm 0.00 in0.0 mm
06:52 PM 36.0°F2.2°C 34.2°F1.2°C 93% 2.9 mph N4.7 kmh N 2.9 mph4.7 kmh 30.47 in1031.8 mb - 0.00 in0.0 mm 0.00 in0.0 mm
06:57 PM 36.0°F2.2°C 34.2°F1.2°C 93% 2.9 mph NW4.7 kmh NW 2.0 mph3.2 kmh 30.47 in1031.8 mb - 0.00 in0.0 mm 0.00 in0.0 mm
07:02 PM 35.8°F2.1°C 34.0°F1.1°C 93% 0.9 mph N1.4 kmh N -- 30.47 in1031.8 mb - 0.00 in0.0 mm 0.00 in0.0 mm
07:07 PM 35.8°F2.1°C 34.0°F1.1°C 93% 0.9 mph N1.4 kmh N 2.9 mph4.7 kmh 30.47 in1031.8 mb - 0.00 in0.0 mm 0.00 in0.0 mm
07:12 PM 35.8°F2.1°C 34.2°F1.2°C 94% 2.9 mph N4.7 kmh N 2.9 mph4.7 kmh 30.47 in1031.8 mb - 0.00 in0.0 mm 0.00 in0.0 mm
07:17 PM 35.8°F2.1°C 34.2°F1.2°C 94% 4.0 mph N6.4 kmh N 2.0 mph3.2 kmh 30.47 in1031.8 mb - 0.00 in0.0 mm 0.00 in0.0 mm
07:22 PM 35.6°F2.0°C 34.0°F1.1°C 94% 2.0 mph E3.2 kmh E 0.9 mph1.4 kmh 30.47 in1031.8 mb - 0.00 in0.0 mm 0.00 in0.0 mm
07:27 PM 35.4°F1.9°C 33.8°F1.0°C 94% Calm Calm -- 30.47 in1031.8 mb - 0.00 in0.0 mm 0.00 in0.0 mm
07:32 PM 35.4°F1.9°C 33.8°F1.0°C 94% Calm Calm -- 30.47 in1031.8 mb - 0.00 in0.0 mm 0.00 in0.0 mm
07:37 PM 35.2°F1.8°C 33.4°F0.8°C 93% Calm Calm -- 30.48 in1032.2 mb - 0.00 in0.0 mm 0.00 in0.0 mm
07:42 PM 35.1°F1.7°C 33.3°F0.7°C 93% Calm Calm -- 30.48 in1032.2 mb - 0.00 in0.0 mm 0.01 in0.3 mm
07:47 PM 35.1°F1.7°C 33.4°F0.8°C 94% Calm Calm -- 30.48 in1032.2 mb - 0.05 in1.3 mm 0.01 in0.3 mm
07:52 PM 35.1°F1.7°C 33.4°F0.8°C 94% 0.9 mph NW1.4 kmh NW -- 30.48 in1032.2 mb - 0.05 in1.3 mm 0.02 in0.5 mm
07:57 PM 35.1°F1.7°C 33.4°F0.8°C 94% 2.0 mph NW3.2 kmh NW -- 30.48 in1032.2 mb - 0.05 in1.3 mm 0.02 in0.5 mm
08:02 PM 35.1°F1.7°C 33.4°F0.8°C 94% 0.9 mph NW1.4 kmh NW -- 30.47 in1031.8 mb - 0.03 in0.8 mm 0.02 in0.5 mm
08:07 PM 35.1°F1.7°C 33.4°F0.8°C 94% Calm Calm 0.9 mph1.4 kmh 30.48 in1032.2 mb - 0.03 in0.8 mm 0.02 in0.5 mm
08:12 PM 35.1°F1.7°C 33.4°F0.8°C 94% Calm Calm -- 30.48 in1032.2 mb - 0.03 in0.8 mm 0.02 in0.5 mm
08:17 PM 35.1°F1.7°C 33.4°F0.8°C 94% 0.9 mph SE1.4 kmh SE -- 30.48 in1032.2 mb - 0.03 in0.8 mm 0.02 in0.5 mm
08:22 PM 35.1°F1.7°C 33.4°F0.8°C 94% 0.9 mph S1.4 kmh S -- 30.47 in1031.8 mb - 0.00 in0.0 mm 0.02 in0.5 mm
08:27 PM 35.1°F1.7°C 33.4°F0.8°C 94% Calm Calm -- 30.48 in1032.2 mb - 0.00 in0.0 mm 0.02 in0.5 mm
08:32 PM 34.9°F1.6°C 33.3°F0.7°C 94% Calm Calm -- 30.48 in1032.2 mb - 0.00 in0.0 mm 0.03 in0.8 mm
08:37 PM 34.9°F1.6°C 33.3°F0.7°C 94% Calm Calm 0.9 mph1.4 kmh 30.48 in1032.2 mb - 0.00 in0.0 mm 0.03 in0.8 mm
08:42 PM 34.9°F1.6°C 33.3°F0.7°C 94% 0.9 mph N1.4 kmh N -- 30.48 in1032.2 mb - 0.03 in0.8 mm 0.03 in0.8 mm
08:47 PM 34.9°F1.6°C 33.3°F0.7°C 94% 0.9 mph NE1.4 kmh NE -- 30.47 in1031.8 mb - 0.03 in0.8 mm 0.04 in1.0 mm
08:52 PM 34.7°F1.5°C 33.1°F0.6°C 94% Calm Calm 0.9 mph1.4 kmh 30.47 in1031.8 mb - 0.03 in0.8 mm 0.04 in1.0 mm
08:57 PM 34.9°F1.6°C 33.3°F0.7°C 94% Calm Calm -- 30.47 in1031.8 mb - 0.03 in0.8 mm 0.04 in1.0 mm
09:02 PM 34.5°F1.4°C 32.9°F0.5°C 94% 0.9 mph SE1.4 kmh SE -- 30.47 in1031.8 mb - 0.03 in0.8 mm 0.05 in1.3 mm
09:07 PM 34.5°F1.4°C 32.9°F0.5°C 94% Calm Calm -- 30.47 in1031.8 mb - 0.03 in0.8 mm 0.05 in1.3 mm
09:12 PM 34.5°F1.4°C 32.9°F0.5°C 94% Calm Calm -- 30.47 in1031.8 mb - 0.03 in0.8 mm 0.05 in1.3 mm
09:17 PM 34.5°F1.4°C 32.9°F0.5°C 94% Calm Calm -- 30.47 in1031.8 mb - 0.00 in0.0 mm 0.05 in1.3 mm
09:22 PM 34.5°F1.4°C 32.9°F0.5°C 94% Calm Calm -- 30.47 in1031.8 mb - 0.00 in0.0 mm 0.05 in1.3 mm
09:27 PM 34.5°F1.4°C 32.9°F0.5°C 94% Calm Calm -- 30.47 in1031.8 mb - 0.00 in0.0 mm 0.06 in1.5 mm
09:32 PM 34.5°F1.4°C 32.9°F0.5°C 94% Calm Calm -- 30.47 in1031.8 mb - 0.00 in0.0 mm 0.06 in1.5 mm
09:37 PM 34.5°F1.4°C 32.9°F0.5°C 94% Calm Calm -- 30.47 in1031.8 mb - 0.03 in0.8 mm 0.06 in1.5 mm
09:42 PM 34.3°F1.3°C 33.1°F0.6°C 95% Calm Calm -- 30.47 in1031.8 mb - 0.03 in0.8 mm 0.06 in1.5 mm
09:47 PM 34.5°F1.4°C 33.3°F0.7°C 95% Calm Calm -- 30.47 in1031.8 mb - 0.06 in1.5 mm 0.06 in1.5 mm
09:52 PM 34.3°F1.3°C 33.1°F0.6°C 95% Calm Calm -- 30.47 in1031.8 mb - 0.06 in1.5 mm 0.07 in1.8 mm
09:57 PM 34.0°F1.1°C 32.4°F0.2°C 94% Calm Calm -- 30.47 in1031.8 mb - 0.05 in1.3 mm 0.07 in1.8 mm
10:02 PM 33.8°F1.0°C 32.2°F0.1°C 94% Calm Calm -- 30.47 in1031.8 mb - 0.05 in1.3 mm 0.08 in2.0 mm
10:07 PM 33.6°F0.9°C 32.4°F0.2°C 95% Calm Calm -- 30.47 in1031.8 mb - 0.04 in1.0 mm 0.08 in2.0 mm
10:12 PM 33.4°F0.8°C 32.2°F0.1°C 95% Calm Calm -- 30.47 in1031.8 mb - 0.03 in0.8 mm 0.08 in2.0 mm
10:17 PM 33.4°F0.8°C 32.2°F0.1°C 95% Calm Calm -- 30.47 in1031.8 mb - 0.00 in0.0 mm 0.09 in2.3 mm
10:22 PM 33.3°F0.7°C 32.0°F0.0°C 95% Calm Calm -- 30.46 in1031.5 mb - 0.00 in0.0 mm 0.09 in2.3 mm
10:27 PM 33.3°F0.7°C 32.0°F0.0°C 95% Calm Calm -- 30.46 in1031.5 mb - 0.00 in0.0 mm 0.09 in2.3 mm
10:32 PM 33.1°F0.6°C 31.8°F-0.1°C 95% Calm Calm -- 30.46 in1031.5 mb - 0.00 in0.0 mm 0.09 in2.3 mm
10:37 PM 33.1°F0.6°C 31.8°F-0.1°C 95% Calm Calm -- 30.46 in1031.5 mb - 0.00 in0.0 mm 0.09 in2.3 mm
10:42 PM 33.1°F0.6°C 31.8°F-0.1°C 95% Calm Calm -- 30.46 in1031.5 mb - 0.00 in0.0 mm 0.09 in2.3 mm
10:47 PM 33.3°F0.7°C 32.0°F0.0°C 95% Calm Calm -- 30.46 in1031.5 mb - 0.00 in0.0 mm 0.09 in2.3 mm
10:52 PM 33.3°F0.7°C 32.0°F0.0°C 95% Calm Calm -- 30.46 in1031.5 mb - 0.00 in0.0 mm 0.09 in2.3 mm
10:57 PM 33.1°F0.6°C 31.8°F-0.1°C 95% Calm Calm -- 30.46 in1031.5 mb - 0.00 in0.0 mm 0.09 in2.3 mm
11:02 PM 33.1°F0.6°C 32.0°F0.0°C 96% Calm Calm -- 30.46 in1031.5 mb - 0.00 in0.0 mm 0.09 in2.3 mm
11:07 PM 33.1°F0.6°C 32.0°F0.0°C 96% Calm Calm -- 30.46 in1031.5 mb - 0.00 in0.0 mm 0.09 in2.3 mm
11:12 PM 33.1°F0.6°C 32.0°F0.0°C 96% Calm Calm -- 30.45 in1031.2 mb - 0.00 in0.0 mm 0.09 in2.3 mm
11:17 PM 33.1°F0.6°C 32.0°F0.0°C 96% Calm Calm -- 30.46 in1031.5 mb - 0.00 in0.0 mm 0.09 in2.3 mm
11:22 PM 33.1°F0.6°C 32.0°F0.0°C 96% Calm Calm -- 30.46 in1031.5 mb - 0.00 in0.0 mm 0.09 in2.3 mm
11:27 PM 33.1°F0.6°C 32.0°F0.0°C 96% Calm Calm -- 30.46 in1031.5 mb - 0.00 in0.0 mm 0.09 in2.3 mm
11:32 PM 33.1°F0.6°C 32.0°F0.0°C 96% Calm Calm -- 30.45 in1031.2 mb - 0.00 in0.0 mm 0.09 in2.3 mm
11:37 PM 33.1°F0.6°C 32.0°F0.0°C 96% Calm Calm -- 30.45 in1031.2 mb - 0.00 in0.0 mm 0.09 in2.3 mm
11:42 PM 33.1°F0.6°C 32.0°F0.0°C 96% Calm Calm 0.9 mph1.4 kmh 30.45 in1031.2 mb - 0.00 in0.0 mm 0.09 in2.3 mm
11:47 PM 33.1°F0.6°C 32.0°F0.0°C 96% Calm Calm -- 30.46 in1031.5 mb - 0.00 in0.0 mm 0.09 in2.3 mm
11:52 PM 33.3°F0.7°C 32.2°F0.1°C 96% Calm Calm -- 30.45 in1031.2 mb - 0.00 in0.0 mm 0.09 in2.3 mm
11:57 PM 33.3°F0.7°C 32.2°F0.1°C 96% Calm Calm -- 30.45 in1031.2 mb - 0.00 in0.0 mm 0.10 in2.5 mm